sensor_id;sensor_type;location;lat;lon;timestamp;temperature;humidity
46508;DHT22;32223;53.654;10.014;2022-09-09T00:04:31;14.10;99.90
46508;DHT22;32223;53.654;10.014;2022-09-09T00:07:05;14.10;99.90
46508;DHT22;32223;53.654;10.014;2022-09-09T00:12:32;14.00;99.90
46508;DHT22;32223;53.654;10.014;2022-09-09T00:15:05;14.00;99.90
46508;DHT22;32223;53.654;10.014;2022-09-09T00:17:36;14.00;99.90
46508;DHT22;32223;53.654;10.014;2022-09-09T00:20:12;14.00;99.90
46508;DHT22;32223;53.654;10.014;2022-09-09T00:22:46;14.00;99.90
46508;DHT22;32223;53.654;10.014;2022-09-09T00:25:23;14.00;99.90
46508;DHT22;32223;53.654;10.014;2022-09-09T00:27:52;14.00;99.90
46508;DHT22;32223;53.654;10.014;2022-09-09T00:30:26;14.00;99.90
46508;DHT22;32223;53.654;10.014;2022-09-09T00:33:00;14.00;99.90
46508;DHT22;32223;53.654;10.014;2022-09-09T00:35:35;14.10;99.90
46508;DHT22;32223;53.654;10.014;2022-09-09T00:38:13;14.10;99.90
46508;DHT22;32223;53.654;10.014;2022-09-09T00:40:49;14.10;99.90
46508;DHT22;32223;53.654;10.014;2022-09-09T00:59:48;14.30;99.90
46508;DHT22;32223;53.654;10.014;2022-09-09T01:03:19;14.30;99.90
46508;DHT22;32223;53.654;10.014;2022-09-09T01:05:45;14.30;99.90
46508;DHT22;32223;53.654;10.014;2022-09-09T01:11:21;14.40;99.90
46508;DHT22;32223;53.654;10.014;2022-09-09T01:13:49;14.40;99.90
46508;DHT22;32223;53.654;10.014;2022-09-09T01:16:18;14.50;99.90
46508;DHT22;32223;53.654;10.014;2022-09-09T01:18:47;14.50;99.90
46508;DHT22;32223;53.654;10.014;2022-09-09T01:24:33;14.50;99.90
46508;DHT22;32223;53.654;10.014;2022-09-09T01:27:05;14.60;99.90
46508;DHT22;32223;53.654;10.014;2022-09-09T01:29:32;14.50;99.90
46508;DHT22;32223;53.654;10.014;2022-09-09T01:32:41;14.50;99.90
46508;DHT22;32223;53.654;10.014;2022-09-09T01:38:04;14.60;99.90
46508;DHT22;32223;53.654;10.014;2022-09-09T01:40:31;14.60;99.90
46508;DHT22;32223;53.654;10.014;2022-09-09T01:42:58;14.60;99.90
46508;DHT22;32223;53.654;10.014;2022-09-09T01:45:24;14.50;99.90
46508;DHT22;32223;53.654;10.014;2022-09-09T01:47:52;14.50;99.90
46508;DHT22;32223;53.654;10.014;2022-09-09T01:50:19;14.60;99.90
46508;DHT22;32223;53.654;10.014;2022-09-09T01:52:46;14.50;99.90
46508;DHT22;32223;53.654;10.014;2022-09-09T01:55:14;14.60;99.90
46508;DHT22;32223;53.654;10.014;2022-09-09T01:57:54;14.50;99.90
46508;DHT22;32223;53.654;10.014;2022-09-09T02:00:21;14.60;99.90
46508;DHT22;32223;53.654;10.014;2022-09-09T02:08:43;14.50;99.90
46508;DHT22;32223;53.654;10.014;2022-09-09T02:11:18;14.50;99.90
46508;DHT22;32223;53.654;10.014;2022-09-09T02:13:46;14.50;99.90
46508;DHT22;32223;53.654;10.014;2022-09-09T02:19:11;14.50;99.90
46508;DHT22;32223;53.654;10.014;2022-09-09T02:21:39;14.50;99.90
46508;DHT22;32223;53.654;10.014;2022-09-09T02:24:07;14.50;99.90
46508;DHT22;32223;53.654;10.014;2022-09-09T02:26:39;14.40;99.90
46508;DHT22;32223;53.654;10.014;2022-09-09T02:29:09;14.40;99.90
46508;DHT22;32223;53.654;10.014;2022-09-09T02:31:36;14.40;99.90
46508;DHT22;32223;53.654;10.014;2022-09-09T02:34:04;14.40;99.90
46508;DHT22;32223;53.654;10.014;2022-09-09T02:36:32;14.30;99.90
46508;DHT22;32223;53.654;10.014;2022-09-09T02:39:00;14.30;99.90
46508;DHT22;32223;53.654;10.014;2022-09-09T02:41:31;14.30;99.90
46508;DHT22;32223;53.654;10.014;2022-09-09T02:43:57;14.20;99.90
46508;DHT22;32223;53.654;10.014;2022-09-09T02:52:15;14.20;99.90
46508;DHT22;32223;53.654;10.014;2022-09-09T02:54:44;14.20;99.90
46508;DHT22;32223;53.654;10.014;2022-09-09T02:57:30;14.20;99.90
46508;DHT22;32223;53.654;10.014;2022-09-09T02:59:58;14.20;99.90
46508;DHT22;32223;53.654;10.014;2022-09-09T03:02:24;14.20;99.90
46508;DHT22;32223;53.654;10.014;2022-09-09T03:04:50;14.10;99.90
46508;DHT22;32223;53.654;10.014;2022-09-09T03:07:18;14.10;99.90
46508;DHT22;32223;53.654;10.014;2022-09-09T03:09:44;14.10;99.90
46508;DHT22;32223;53.654;10.014;2022-09-09T03:12:10;14.10;99.90
46508;DHT22;32223;53.654;10.014;2022-09-09T03:14:37;14.00;99.90
46508;DHT22;32223;53.654;10.014;2022-09-09T03:17:04;14.00;99.90
46508;DHT22;32223;53.654;10.014;2022-09-09T03:19:30;14.00;99.90
46508;DHT22;32223;53.654;10.014;2022-09-09T03:21:57;14.10;99.90
46508;DHT22;32223;53.654;10.014;2022-09-09T03:24:22;14.10;99.90
46508;DHT22;32223;53.654;10.014;2022-09-09T03:26:48;14.10;99.90
46508;DHT22;32223;53.654;10.014;2022-09-09T03:29:16;14.00;99.90
46508;DHT22;32223;53.654;10.014;2022-09-09T03:31:43;14.10;99.90
46508;DHT22;32223;53.654;10.014;2022-09-09T03:34:08;14.00;99.90
46508;DHT22;32223;53.654;10.014;2022-09-09T03:36:34;14.00;99.90
46508;DHT22;32223;53.654;10.014;2022-09-09T03:39:00;14.00;99.90
46508;DHT22;32223;53.654;10.014;2022-09-09T03:41:26;14.00;99.90
46508;DHT22;32223;53.654;10.014;2022-09-09T03:43:53;14.00;99.90
46508;DHT22;32223;53.654;10.014;2022-09-09T03:46:20;14.00;99.90
46508;DHT22;32223;53.654;10.014;2022-09-09T03:48:45;14.00;99.90
46508;DHT22;32223;53.654;10.014;2022-09-09T03:51:11;14.00;99.90
46508;DHT22;32223;53.654;10.014;2022-09-09T03:53:37;13.90;99.90
46508;DHT22;32223;53.654;10.014;2022-09-09T03:56:03;13.90;99.90
46508;DHT22;32223;53.654;10.014;2022-09-09T03:58:29;13.80;99.90
46508;DHT22;32223;53.654;10.014;2022-09-09T04:01:00;13.80;99.90
46508;DHT22;32223;53.654;10.014;2022-09-09T04:03:26;13.90;99.90
46508;DHT22;32223;53.654;10.014;2022-09-09T04:05:52;13.80;99.90
46508;DHT22;32223;53.654;10.014;2022-09-09T04:08:20;13.80;99.90
46508;DHT22;32223;53.654;10.014;2022-09-09T04:10:47;13.80;99.90
46508;DHT22;32223;53.654;10.014;2022-09-09T04:13:14;13.80;99.90
46508;DHT22;32223;53.654;10.014;2022-09-09T04:15:41;13.80;99.90
46508;DHT22;32223;53.654;10.014;2022-09-09T04:18:07;13.90;99.90
46508;DHT22;32223;53.654;10.014;2022-09-09T04:20:33;13.90;99.90
46508;DHT22;32223;53.654;10.014;2022-09-09T04:22:59;13.80;99.90
46508;DHT22;32223;53.654;10.014;2022-09-09T04:25:25;13.80;99.90
46508;DHT22;32223;53.654;10.014;2022-09-09T04:27:55;13.80;99.90
46508;DHT22;32223;53.654;10.014;2022-09-09T04:30:21;13.80;99.90
46508;DHT22;32223;53.654;10.014;2022-09-09T04:32:46;13.80;99.90
46508;DHT22;32223;53.654;10.014;2022-09-09T04:35:12;13.70;99.90
46508;DHT22;32223;53.654;10.014;2022-09-09T04:37:37;13.80;99.90
46508;DHT22;32223;53.654;10.014;2022-09-09T04:40:03;13.80;99.90
46508;DHT22;32223;53.654;10.014;2022-09-09T04:42:29;13.80;99.90
46508;DHT22;32223;53.654;10.014;2022-09-09T04:44:55;13.80;99.90
46508;DHT22;32223;53.654;10.014;2022-09-09T04:47:21;13.80;99.90
46508;DHT22;32223;53.654;10.014;2022-09-09T04:49:46;13.80;99.90
46508;DHT22;32223;53.654;10.014;2022-09-09T04:52:12;13.80;99.90
46508;DHT22;32223;53.654;10.014;2022-09-09T04:54:38;13.80;99.90
46508;DHT22;32223;53.654;10.014;2022-09-09T04:57:04;13.80;99.90
46508;DHT22;32223;53.654;10.014;2022-09-09T04:59:30;13.90;99.90
46508;DHT22;32223;53.654;10.014;2022-09-09T05:01:56;13.80;99.90
46508;DHT22;32223;53.654;10.014;2022-09-09T05:04:22;13.90;99.90
46508;DHT22;32223;53.654;10.014;2022-09-09T05:06:47;13.80;99.90
46508;DHT22;32223;53.654;10.014;2022-09-09T05:09:13;13.80;99.90
46508;DHT22;32223;53.654;10.014;2022-09-09T05:11:39;13.80;99.90
46508;DHT22;32223;53.654;10.014;2022-09-09T05:14:05;13.80;99.90
46508;DHT22;32223;53.654;10.014;2022-09-09T05:16:31;13.80;99.90
46508;DHT22;32223;53.654;10.014;2022-09-09T05:18:57;13.70;99.90
46508;DHT22;32223;53.654;10.014;2022-09-09T05:21:23;13.70;99.90
46508;DHT22;32223;53.654;10.014;2022-09-09T05:23:51;13.70;99.90
46508;DHT22;32223;53.654;10.014;2022-09-09T05:26:19;13.60;99.90
46508;DHT22;32223;53.654;10.014;2022-09-09T05:28:46;13.60;99.90
46508;DHT22;32223;53.654;10.014;2022-09-09T05:31:14;13.60;99.90
46508;DHT22;32223;53.654;10.014;2022-09-09T05:33:42;13.60;99.90
46508;DHT22;32223;53.654;10.014;2022-09-09T05:36:10;13.50;99.90
46508;DHT22;32223;53.654;10.014;2022-09-09T05:38:39;13.50;99.90
46508;DHT22;32223;53.654;10.014;2022-09-09T05:41:06;13.50;99.90
46508;DHT22;32223;53.654;10.014;2022-09-09T05:43:33;13.50;99.90
46508;DHT22;32223;53.654;10.014;2022-09-09T05:46:11;13.50;99.90
46508;DHT22;32223;53.654;10.014;2022-09-09T05:48:38;13.50;99.90
46508;DHT22;32223;53.654;10.014;2022-09-09T05:51:06;13.50;99.90
46508;DHT22;32223;53.654;10.014;2022-09-09T05:53:32;13.50;99.90
46508;DHT22;32223;53.654;10.014;2022-09-09T05:56:10;13.50;99.90
46508;DHT22;32223;53.654;10.014;2022-09-09T05:58:37;13.60;99.90
46508;DHT22;32223;53.654;10.014;2022-09-09T06:01:11;13.60;99.90
46508;DHT22;32223;53.654;10.014;2022-09-09T06:03:39;13.60;99.90
46508;DHT22;32223;53.654;10.014;2022-09-09T06:06:07;13.60;99.90
46508;DHT22;32223;53.654;10.014;2022-09-09T06:08:34;13.70;99.90
46508;DHT22;32223;53.654;10.014;2022-09-09T06:13:30;13.80;99.90
46508;DHT22;32223;53.654;10.014;2022-09-09T06:15:55;13.90;99.90
46508;DHT22;32223;53.654;10.014;2022-09-09T06:18:21;13.90;99.90
46508;DHT22;32223;53.654;10.014;2022-09-09T06:20:58;14.10;99.90
46508;DHT22;32223;53.654;10.014;2022-09-09T06:23:25;14.10;99.90
46508;DHT22;32223;53.654;10.014;2022-09-09T06:25:51;14.20;99.90
46508;DHT22;32223;53.654;10.014;2022-09-09T06:28:17;14.20;99.90
46508;DHT22;32223;53.654;10.014;2022-09-09T06:30:43;14.30;99.90
46508;DHT22;32223;53.654;10.014;2022-09-09T06:33:10;14.40;99.90
46508;DHT22;32223;53.654;10.014;2022-09-09T06:35:35;14.40;99.90
46508;DHT22;32223;53.654;10.014;2022-09-09T06:38:01;14.40;99.90
46508;DHT22;32223;53.654;10.014;2022-09-09T06:40:27;14.50;99.90
46508;DHT22;32223;53.654;10.014;2022-09-09T06:42:52;14.50;99.90
46508;DHT22;32223;53.654;10.014;2022-09-09T06:45:18;14.60;99.90
46508;DHT22;32223;53.654;10.014;2022-09-09T06:47:44;14.60;99.90
46508;DHT22;32223;53.654;10.014;2022-09-09T06:50:10;14.60;99.90
46508;DHT22;32223;53.654;10.014;2022-09-09T06:52:36;14.70;99.90
46508;DHT22;32223;53.654;10.014;2022-09-09T06:55:02;14.70;99.90
46508;DHT22;32223;53.654;10.014;2022-09-09T06:57:28;14.90;99.90
46508;DHT22;32223;53.654;10.014;2022-09-09T06:59:53;14.90;99.90
46508;DHT22;32223;53.654;10.014;2022-09-09T07:02:19;15.00;99.90
46508;DHT22;32223;53.654;10.014;2022-09-09T07:04:45;15.10;99.90
46508;DHT22;32223;53.654;10.014;2022-09-09T07:07:11;15.20;99.90
46508;DHT22;32223;53.654;10.014;2022-09-09T07:09:39;15.20;99.90
46508;DHT22;32223;53.654;10.014;2022-09-09T07:12:06;15.40;99.90
46508;DHT22;32223;53.654;10.014;2022-09-09T07:14:32;15.50;99.90
46508;DHT22;32223;53.654;10.014;2022-09-09T07:16:59;15.60;99.90
46508;DHT22;32223;53.654;10.014;2022-09-09T07:19:25;15.70;99.90
46508;DHT22;32223;53.654;10.014;2022-09-09T07:21:51;15.90;99.90
46508;DHT22;32223;53.654;10.014;2022-09-09T07:24:16;16.00;99.90
46508;DHT22;32223;53.654;10.014;2022-09-09T07:26:42;16.10;99.90
46508;DHT22;32223;53.654;10.014;2022-09-09T07:29:09;16.30;99.90
46508;DHT22;32223;53.654;10.014;2022-09-09T07:31:37;16.50;99.90
46508;DHT22;32223;53.654;10.014;2022-09-09T07:34:04;16.50;99.90
46508;DHT22;32223;53.654;10.014;2022-09-09T07:36:33;16.70;99.90
46508;DHT22;32223;53.654;10.014;2022-09-09T07:39:04;16.70;99.90
46508;DHT22;32223;53.654;10.014;2022-09-09T07:44:09;16.90;99.90
46508;DHT22;32223;53.654;10.014;2022-09-09T07:46:36;17.00;99.90
46508;DHT22;32223;53.654;10.014;2022-09-09T07:49:02;17.00;99.90
46508;DHT22;32223;53.654;10.014;2022-09-09T07:51:36;17.10;99.90
46508;DHT22;32223;53.654;10.014;2022-09-09T07:54:08;17.20;99.90
46508;DHT22;32223;53.654;10.014;2022-09-09T07:56:35;17.30;99.90
46508;DHT22;32223;53.654;10.014;2022-09-09T07:59:03;17.30;99.90
46508;DHT22;32223;53.654;10.014;2022-09-09T08:01:40;17.30;99.90
46508;DHT22;32223;53.654;10.014;2022-09-09T08:04:17;17.30;99.90
46508;DHT22;32223;53.654;10.014;2022-09-09T08:06:48;17.40;99.90
46508;DHT22;32223;53.654;10.014;2022-09-09T08:09:15;17.50;99.90
46508;DHT22;32223;53.654;10.014;2022-09-09T08:11:41;17.50;99.90
46508;DHT22;32223;53.654;10.014;2022-09-09T08:14:07;17.50;99.90
46508;DHT22;32223;53.654;10.014;2022-09-09T08:16:35;17.50;99.90
46508;DHT22;32223;53.654;10.014;2022-09-09T08:19:02;17.30;99.90
46508;DHT22;32223;53.654;10.014;2022-09-09T08:21:30;17.20;99.90
46508;DHT22;32223;53.654;10.014;2022-09-09T08:23:59;17.20;99.90
46508;DHT22;32223;53.654;10.014;2022-09-09T08:26:30;17.20;99.90
46508;DHT22;32223;53.654;10.014;2022-09-09T08:28:58;17.20;99.90
46508;DHT22;32223;53.654;10.014;2022-09-09T08:31:29;17.30;99.90
46508;DHT22;32223;53.654;10.014;2022-09-09T08:33:57;17.30;99.90
46508;DHT22;32223;53.654;10.014;2022-09-09T08:36:26;17.50;99.90
46508;DHT22;32223;53.654;10.014;2022-09-09T08:38:54;17.60;99.90
46508;DHT22;32223;53.654;10.014;2022-09-09T08:52:23;18.20;99.90
46508;DHT22;32223;53.654;10.014;2022-09-09T08:54:51;18.30;99.90
46508;DHT22;32223;53.654;10.014;2022-09-09T08:57:24;18.40;99.90
46508;DHT22;32223;53.654;10.014;2022-09-09T08:59:52;18.50;99.90
46508;DHT22;32223;53.654;10.014;2022-09-09T09:13:02;19.00;99.90
46508;DHT22;32223;53.654;10.014;2022-09-09T09:15:36;19.10;99.90
46508;DHT22;32223;53.654;10.014;2022-09-09T09:18:04;19.20;99.90
46508;DHT22;32223;53.654;10.014;2022-09-09T09:20:55;19.20;99.90
46508;DHT22;32223;53.654;10.014;2022-09-09T09:23:27;19.30;99.90
46508;DHT22;32223;53.654;10.014;2022-09-09T09:25:59;19.40;99.90
46508;DHT22;32223;53.654;10.014;2022-09-09T09:28:29;19.60;99.90
46508;DHT22;32223;53.654;10.014;2022-09-09T09:30:56;19.70;99.90
46508;DHT22;32223;53.654;10.014;2022-09-09T09:36:12;20.30;99.90
46508;DHT22;32223;53.654;10.014;2022-09-09T09:39:00;20.30;99.90
46508;DHT22;32223;53.654;10.014;2022-09-09T09:41:40;20.20;99.90
46508;DHT22;32223;53.654;10.014;2022-09-09T09:44:23;20.20;99.90
46508;DHT22;32223;53.654;10.014;2022-09-09T09:46:49;20.10;99.90
46508;DHT22;32223;53.654;10.014;2022-09-09T09:49:14;20.20;99.90
46508;DHT22;32223;53.654;10.014;2022-09-09T09:51:40;20.20;99.90
46508;DHT22;32223;53.654;10.014;2022-09-09T09:54:28;20.20;99.90
46508;DHT22;32223;53.654;10.014;2022-09-09T09:56:55;20.20;99.90
46508;DHT22;32223;53.654;10.014;2022-09-09T10:01:53;20.30;99.90
46508;DHT22;32223;53.654;10.014;2022-09-09T10:04:21;20.40;99.90
46508;DHT22;32223;53.654;10.014;2022-09-09T10:06:49;20.40;99.90
46508;DHT22;32223;53.654;10.014;2022-09-09T10:17:16;20.40;99.90
46508;DHT22;32223;53.654;10.014;2022-09-09T10:22:45;20.60;99.90
46508;DHT22;32223;53.654;10.014;2022-09-09T10:38:45;20.60;99.90
46508;DHT22;32223;53.654;10.014;2022-09-09T10:50:11;20.70;99.90
46508;DHT22;32223;53.654;10.014;2022-09-09T10:53:02;20.90;99.90
46508;DHT22;32223;53.654;10.014;2022-09-09T10:55:41;21.00;99.90
46508;DHT22;32223;53.654;10.014;2022-09-09T10:58:21;21.10;99.90
46508;DHT22;32223;53.654;10.014;2022-09-09T11:00:56;21.10;99.90
46508;DHT22;32223;53.654;10.014;2022-09-09T11:03:26;21.30;99.90
46508;DHT22;32223;53.654;10.014;2022-09-09T11:06:05;21.30;99.90
46508;DHT22;32223;53.654;10.014;2022-09-09T11:08:34;21.50;99.90
46508;DHT22;32223;53.654;10.014;2022-09-09T11:11:17;21.70;99.90
46508;DHT22;32223;53.654;10.014;2022-09-09T11:14:05;21.90;99.90
46508;DHT22;32223;53.654;10.014;2022-09-09T11:16:46;22.20;99.90
46508;DHT22;32223;53.654;10.014;2022-09-09T11:19:37;22.20;99.90
46508;DHT22;32223;53.654;10.014;2022-09-09T11:22:19;22.00;99.90
46508;DHT22;32223;53.654;10.014;2022-09-09T11:24:53;21.80;99.90
46508;DHT22;32223;53.654;10.014;2022-09-09T11:27:27;21.60;99.90
46508;DHT22;32223;53.654;10.014;2022-09-09T11:32:47;21.40;99.90
46508;DHT22;32223;53.654;10.014;2022-09-09T11:40:41;21.50;99.90
46508;DHT22;32223;53.654;10.014;2022-09-09T11:43:21;21.60;99.90
46508;DHT22;32223;53.654;10.014;2022-09-09T11:45:54;21.50;99.90
46508;DHT22;32223;53.654;10.014;2022-09-09T11:48:42;21.40;99.90
46508;DHT22;32223;53.654;10.014;2022-09-09T11:51:12;21.40;99.90
46508;DHT22;32223;53.654;10.014;2022-09-09T11:53:59;21.40;99.90
46508;DHT22;32223;53.654;10.014;2022-09-09T11:56:41;21.60;99.90
46508;DHT22;32223;53.654;10.014;2022-09-09T11:59:31;21.70;99.90
46508;DHT22;32223;53.654;10.014;2022-09-09T12:05:07;22.00;99.90
46508;DHT22;32223;53.654;10.014;2022-09-09T12:07:56;22.30;99.90
46508;DHT22;32223;53.654;10.014;2022-09-09T12:10:28;22.80;99.90
46508;DHT22;32223;53.654;10.014;2022-09-09T12:12:55;23.00;99.90
46508;DHT22;32223;53.654;10.014;2022-09-09T12:15:23;22.90;99.90
46508;DHT22;32223;53.654;10.014;2022-09-09T12:17:55;22.80;99.90
46508;DHT22;32223;53.654;10.014;2022-09-09T12:20:40;22.50;99.90
46508;DHT22;32223;53.654;10.014;2022-09-09T12:31:35;22.20;99.90
46508;DHT22;32223;53.654;10.014;2022-09-09T12:34:33;21.90;99.90
46508;DHT22;32223;53.654;10.014;2022-09-09T12:39:59;21.60;99.90
46508;DHT22;32223;53.654;10.014;2022-09-09T12:42:26;21.40;99.90
46508;DHT22;32223;53.654;10.014;2022-09-09T12:44:59;21.40;99.90
46508;DHT22;32223;53.654;10.014;2022-09-09T12:47:33;21.30;99.90
46508;DHT22;32223;53.654;10.014;2022-09-09T12:50:03;21.20;99.90
46508;DHT22;32223;53.654;10.014;2022-09-09T12:52:35;21.20;99.90
46508;DHT22;32223;53.654;10.014;2022-09-09T12:55:05;21.00;99.90
46508;DHT22;32223;53.654;10.014;2022-09-09T12:57:38;20.90;99.90
46508;DHT22;32223;53.654;10.014;2022-09-09T13:00:12;20.80;99.90
46508;DHT22;32223;53.654;10.014;2022-09-09T13:02:46;20.70;99.90
46508;DHT22;32223;53.654;10.014;2022-09-09T13:05:15;20.40;99.90
46508;DHT22;32223;53.654;10.014;2022-09-09T13:07:42;20.30;99.90
46508;DHT22;32223;53.654;10.014;2022-09-09T13:10:11;20.20;99.90
46508;DHT22;32223;53.654;10.014;2022-09-09T13:12:38;20.10;99.90
46508;DHT22;32223;53.654;10.014;2022-09-09T13:15:04;19.90;99.90
46508;DHT22;32223;53.654;10.014;2022-09-09T13:17:36;19.80;99.90
46508;DHT22;32223;53.654;10.014;2022-09-09T13:20:02;19.40;99.90
46508;DHT22;32223;53.654;10.014;2022-09-09T13:22:35;19.30;99.90
46508;DHT22;32223;53.654;10.014;2022-09-09T13:33:21;18.80;99.90
46508;DHT22;32223;53.654;10.014;2022-09-09T13:35:51;18.60;99.90
46508;DHT22;32223;53.654;10.014;2022-09-09T13:38:18;18.60;99.90
46508;DHT22;32223;53.654;10.014;2022-09-09T13:40:58;18.40;99.90
46508;DHT22;32223;53.654;10.014;2022-09-09T13:43:27;18.30;99.90
46508;DHT22;32223;53.654;10.014;2022-09-09T13:45:59;18.20;99.90
46508;DHT22;32223;53.654;10.014;2022-09-09T13:48:25;18.10;99.90
46508;DHT22;32223;53.654;10.014;2022-09-09T13:51:21;18.10;99.90
46508;DHT22;32223;53.654;10.014;2022-09-09T13:53:51;17.90;99.90
46508;DHT22;32223;53.654;10.014;2022-09-09T13:56:17;17.70;99.90
46508;DHT22;32223;53.654;10.014;2022-09-09T13:58:43;17.60;99.90
46508;DHT22;32223;53.654;10.014;2022-09-09T14:01:09;17.60;99.90
46508;DHT22;32223;53.654;10.014;2022-09-09T14:03:35;17.50;99.90
46508;DHT22;32223;53.654;10.014;2022-09-09T14:06:01;17.40;99.90
46508;DHT22;32223;53.654;10.014;2022-09-09T14:08:27;17.30;99.90
46508;DHT22;32223;53.654;10.014;2022-09-09T14:10:54;17.30;99.90
46508;DHT22;32223;53.654;10.014;2022-09-09T14:13:22;17.20;99.90
46508;DHT22;32223;53.654;10.014;2022-09-09T14:15:48;17.20;99.90
46508;DHT22;32223;53.654;10.014;2022-09-09T14:18:14;17.20;99.90
46508;DHT22;32223;53.654;10.014;2022-09-09T14:20:40;17.20;99.90
46508;DHT22;32223;53.654;10.014;2022-09-09T14:23:05;17.20;99.90
46508;DHT22;32223;53.654;10.014;2022-09-09T14:25:32;17.20;99.90
46508;DHT22;32223;53.654;10.014;2022-09-09T14:27:58;17.10;99.90
46508;DHT22;32223;53.654;10.014;2022-09-09T14:30:24;17.10;99.90
46508;DHT22;32223;53.654;10.014;2022-09-09T14:32:49;17.20;99.90
46508;DHT22;32223;53.654;10.014;2022-09-09T14:35:15;17.20;99.90
46508;DHT22;32223;53.654;10.014;2022-09-09T14:37:42;17.20;99.90
46508;DHT22;32223;53.654;10.014;2022-09-09T14:40:08;17.10;99.90
46508;DHT22;32223;53.654;10.014;2022-09-09T14:42:34;17.10;99.90
46508;DHT22;32223;53.654;10.014;2022-09-09T14:45:00;17.10;99.90
46508;DHT22;32223;53.654;10.014;2022-09-09T14:47:25;17.10;99.90
46508;DHT22;32223;53.654;10.014;2022-09-09T14:49:51;17.10;99.90
46508;DHT22;32223;53.654;10.014;2022-09-09T14:52:17;17.20;99.90
46508;DHT22;32223;53.654;10.014;2022-09-09T14:54:42;17.20;99.90
46508;DHT22;32223;53.654;10.014;2022-09-09T14:57:08;17.20;99.90
46508;DHT22;32223;53.654;10.014;2022-09-09T14:59:34;17.20;99.90
46508;DHT22;32223;53.654;10.014;2022-09-09T15:01:59;17.20;99.90
46508;DHT22;32223;53.654;10.014;2022-09-09T15:04:29;17.20;99.90
46508;DHT22;32223;53.654;10.014;2022-09-09T15:06:54;17.20;99.90
46508;DHT22;32223;53.654;10.014;2022-09-09T15:09:20;17.20;99.90
46508;DHT22;32223;53.654;10.014;2022-09-09T15:11:46;17.20;99.90
46508;DHT22;32223;53.654;10.014;2022-09-09T15:14:11;17.20;99.90
46508;DHT22;32223;53.654;10.014;2022-09-09T15:16:38;17.30;99.90
46508;DHT22;32223;53.654;10.014;2022-09-09T15:19:04;17.30;99.90
46508;DHT22;32223;53.654;10.014;2022-09-09T15:21:32;17.30;99.90
46508;DHT22;32223;53.654;10.014;2022-09-09T15:23:59;17.30;99.90
46508;DHT22;32223;53.654;10.014;2022-09-09T15:26:25;17.30;99.90
46508;DHT22;32223;53.654;10.014;2022-09-09T15:28:52;17.40;99.90
46508;DHT22;32223;53.654;10.014;2022-09-09T15:31:20;17.40;99.90
46508;DHT22;32223;53.654;10.014;2022-09-09T15:33:50;17.30;99.90
46508;DHT22;32223;53.654;10.014;2022-09-09T15:36:27;17.40;99.90
46508;DHT22;32223;53.654;10.014;2022-09-09T15:38:54;17.30;99.90
46508;DHT22;32223;53.654;10.014;2022-09-09T15:41:21;17.40;99.90
46508;DHT22;32223;53.654;10.014;2022-09-09T15:43:49;17.40;99.90
46508;DHT22;32223;53.654;10.014;2022-09-09T15:46:29;17.50;99.90
46508;DHT22;32223;53.654;10.014;2022-09-09T15:48:57;17.50;99.90
46508;DHT22;32223;53.654;10.014;2022-09-09T15:51:24;17.60;99.90
46508;DHT22;32223;53.654;10.014;2022-09-09T15:53:57;17.60;99.90
46508;DHT22;32223;53.654;10.014;2022-09-09T15:56:25;17.70;99.90
46508;DHT22;32223;53.654;10.014;2022-09-09T15:58:52;17.80;99.90
46508;DHT22;32223;53.654;10.014;2022-09-09T16:01:18;17.90;99.90
46508;DHT22;32223;53.654;10.014;2022-09-09T16:03:45;17.90;99.90
46508;DHT22;32223;53.654;10.014;2022-09-09T16:06:17;18.00;99.90
46508;DHT22;32223;53.654;10.014;2022-09-09T16:08:45;18.10;99.90
46508;DHT22;32223;53.654;10.014;2022-09-09T16:11:17;18.20;99.90
46508;DHT22;32223;53.654;10.014;2022-09-09T16:13:46;18.30;99.90
46508;DHT22;32223;53.654;10.014;2022-09-09T16:16:13;18.60;99.90
46508;DHT22;32223;53.654;10.014;2022-09-09T16:18:43;19.10;99.90
46508;DHT22;32223;53.654;10.014;2022-09-09T16:21:17;19.80;99.90
46508;DHT22;32223;53.654;10.014;2022-09-09T16:23:44;20.50;99.90
46508;DHT22;32223;53.654;10.014;2022-09-09T16:26:14;21.10;99.90
46508;DHT22;32223;53.654;10.014;2022-09-09T16:28:41;21.50;99.90
46508;DHT22;32223;53.654;10.014;2022-09-09T16:31:08;21.40;99.90
46508;DHT22;32223;53.654;10.014;2022-09-09T16:33:36;21.20;99.90
46508;DHT22;32223;53.654;10.014;2022-09-09T16:36:09;20.80;99.90
46508;DHT22;32223;53.654;10.014;2022-09-09T16:38:36;20.50;99.90
46508;DHT22;32223;53.654;10.014;2022-09-09T16:41:03;20.20;99.90
46508;DHT22;32223;53.654;10.014;2022-09-09T16:43:31;19.80;99.90
46508;DHT22;32223;53.654;10.014;2022-09-09T16:45:57;19.50;99.90
46508;DHT22;32223;53.654;10.014;2022-09-09T16:48:22;19.30;99.90
46508;DHT22;32223;53.654;10.014;2022-09-09T16:50:48;19.10;99.90
46508;DHT22;32223;53.654;10.014;2022-09-09T16:53:14;18.90;99.90
46508;DHT22;32223;53.654;10.014;2022-09-09T16:55:41;18.70;99.90
46508;DHT22;32223;53.654;10.014;2022-09-09T16:58:10;18.50;99.90
46508;DHT22;32223;53.654;10.014;2022-09-09T17:00:36;18.40;99.90
46508;DHT22;32223;53.654;10.014;2022-09-09T17:03:01;18.20;99.90
46508;DHT22;32223;53.654;10.014;2022-09-09T17:05:29;18.10;99.90
46508;DHT22;32223;53.654;10.014;2022-09-09T17:07:55;18.00;99.90
46508;DHT22;32223;53.654;10.014;2022-09-09T17:10:25;17.80;99.90
46508;DHT22;32223;53.654;10.014;2022-09-09T17:12:52;17.80;99.90
46508;DHT22;32223;53.654;10.014;2022-09-09T17:15:17;17.60;99.90
46508;DHT22;32223;53.654;10.014;2022-09-09T17:17:44;17.50;99.90
46508;DHT22;32223;53.654;10.014;2022-09-09T17:20:14;17.40;99.90
46508;DHT22;32223;53.654;10.014;2022-09-09T17:22:40;17.30;99.90
46508;DHT22;32223;53.654;10.014;2022-09-09T17:25:06;17.30;99.90
46508;DHT22;32223;53.654;10.014;2022-09-09T17:27:32;17.10;99.90
46508;DHT22;32223;53.654;10.014;2022-09-09T17:29:57;17.10;99.90
46508;DHT22;32223;53.654;10.014;2022-09-09T17:32:24;16.90;99.90
46508;DHT22;32223;53.654;10.014;2022-09-09T17:34:49;16.80;99.90
46508;DHT22;32223;53.654;10.014;2022-09-09T17:37:15;16.70;99.90
46508;DHT22;32223;53.654;10.014;2022-09-09T17:39:41;16.60;99.90
46508;DHT22;32223;53.654;10.014;2022-09-09T17:42:07;16.50;99.90
46508;DHT22;32223;53.654;10.014;2022-09-09T17:44:35;16.40;99.90
46508;DHT22;32223;53.654;10.014;2022-09-09T17:47:01;16.40;99.90
46508;DHT22;32223;53.654;10.014;2022-09-09T17:49:29;16.30;99.90
46508;DHT22;32223;53.654;10.014;2022-09-09T17:51:54;16.10;99.90